Time;durP1;ratioP1;P1;durP2;ratioP2;P2;SDS_P1;SDS_P2;PMS_P1;PMS_P2;Temp;Humidity;BMP_temperature;BMP_pressure;BME280_temperature;BME280_humidity;BME280_pressure;Samples;Min_cycle;Max_cycle;Signal;HPM_P1;HPM_P2
2023/01/11 00:01:49;;;;;;;0.43;0.43;;;5.40;99.90;;;;;;4364462;32;20070;-64
2023/01/11 00:04:14;;;;;;;0.40;0.40;;;5.30;99.90;;;;;;4365036;32;20507;-63
2023/01/11 00:06:40;;;;;;;0.60;0.60;;;5.40;99.90;;;;;;4382113;32;20061;-65
2023/01/11 00:09:05;;;;;;;0.77;0.77;;;5.40;99.90;;;;;;4385880;32;20090;-64
2023/01/11 00:11:30;;;;;;;0.40;0.40;;;5.40;99.90;;;;;;4375958;32;20468;-64
2023/01/11 00:13:56;;;;;;;0.40;0.40;;;5.30;99.90;;;;;;4368913;32;20448;-64
2023/01/11 00:16:22;;;;;;;0.90;0.52;;;5.30;99.90;;;;;;4382769;32;20094;-64
2023/01/11 00:18:47;;;;;;;0.55;0.55;;;5.30;99.90;;;;;;4385160;32;20545;-65
2023/01/11 00:21:13;;;;;;;0.40;0.40;;;5.30;99.90;;;;;;4373912;32;20094;-64
2023/01/11 00:23:39;;;;;;;0.30;0.30;;;5.30;99.90;;;;;;4365970;32;20589;-64
2023/01/11 00:26:08;;;;;;;0.40;0.40;;;5.20;99.90;;;;;;4383955;32;20121;-64
2023/01/11 00:28:34;;;;;;;0.40;0.40;;;5.20;99.90;;;;;;4381610;32;20468;-63
2023/01/11 00:31:00;;;;;;;0.40;0.40;;;5.30;99.90;;;;;;4372482;32;20098;-64
2023/01/11 00:33:25;;;;;;;0.60;0.60;;;5.20;99.90;;;;;;4371969;32;20227;-63
2023/01/11 00:35:51;;;;;;;0.68;0.68;;;5.30;99.90;;;;;;4376135;32;20119;-65
2023/01/11 00:38:52;;;;;;;0.60;0.60;;;5.20;99.90;;;;;;4388103;32;20153;-64
2023/01/11 00:48:09;;;;;;;2.28;0.85;;;5.10;99.90;;;;;;4382643;32;20095;-64
2023/01/11 00:49:22;;;;;;;2.58;1.00;;;5.10;99.90;;;;;;4382688;32;20433;-70
2023/01/11 00:51:48;;;;;;;0.43;0.43;;;5.00;99.90;;;;;;4367509;32;20759;-64
2023/01/11 00:54:14;;;;;;;12.43;1.95;;;5.10;99.90;;;;;;4371743;32;20069;-65
2023/01/11 00:56:39;;;;;;;0.50;0.50;;;5.10;99.90;;;;;;4388707;32;20148;-65
2023/01/11 00:59:05;;;;;;;0.50;0.50;;;5.10;99.90;;;;;;4379813;32;20089;-63
2023/01/11 01:01:31;;;;;;;0.30;0.30;;;5.10;99.90;;;;;;4377853;32;20506;-66
2023/01/11 01:03:58;;;;;;;0.30;0.30;;;5.20;99.90;;;;;;4369376;32;20234;-64
2023/01/11 01:06:23;;;;;;;0.40;0.40;;;5.10;99.90;;;;;;4379299;32;20086;-64
2023/01/11 01:08:50;;;;;;;5.97;2.05;;;5.10;99.90;;;;;;4386182;32;20087;-65
2023/01/11 01:11:15;;;;;;;2.08;1.10;;;5.10;99.90;;;;;;4376276;32;20359;-64
2023/01/11 01:14:41;;;;;;;0.40;0.40;;;5.10;99.90;;;;;;4370768;32;20078;-64
2023/01/11 01:16:27;;;;;;;0.75;0.75;;;5.20;99.90;;;;;;4378603;32;20105;-65
2023/01/11 01:18:55;;;;;;;8.27;0.75;;;5.20;99.90;;;;;;4384764;32;20144;-64
2023/01/11 01:21:21;;;;;;;2.65;1.20;;;5.20;99.90;;;;;;4371550;32;20743;-63
2023/01/11 01:23:47;;;;;;;0.50;0.50;;;5.20;99.90;;;;;;4369334;32;20401;-64
2023/01/11 01:26:13;;;;;;;30.88;1.42;;;5.20;99.90;;;;;;4384730;32;20731;-64
2023/01/11 01:28:38;;;;;;;0.88;0.88;;;5.20;99.90;;;;;;4384632;32;20157;-63
2023/01/11 01:31:04;;;;;;;0.75;0.75;;;5.20;99.90;;;;;;4374875;32;20090;-64
2023/01/11 01:33:29;;;;;;;4.05;1.02;;;5.30;99.90;;;;;;4374744;32;20098;-62
2023/01/11 01:35:56;;;;;;;0.35;0.35;;;5.30;99.90;;;;;;4381521;32;20617;-64
2023/01/11 01:38:21;;;;;;;0.45;0.45;;;5.30;99.90;;;;;;4388046;32;20095;-64
2023/01/11 01:40:47;;;;;;;0.40;0.40;;;5.30;99.90;;;;;;4379773;32;20125;-62
2023/01/11 01:43:16;;;;;;;0.30;0.30;;;5.40;99.90;;;;;;4374192;32;20070;-64
2023/01/11 01:45:42;;;;;;;0.35;0.35;;;5.40;99.90;;;;;;4380718;32;20094;-64
2023/01/11 01:48:14;;;;;;;0.50;0.50;;;5.50;99.90;;;;;;4387037;32;20086;-63
2023/01/11 01:50:47;;;;;;;5.47;2.37;;;5.50;99.90;;;;;;4377622;32;20155;-63
2023/01/11 01:53:17;;;;;;;0.50;0.50;;;5.50;99.90;;;;;;4366084;32;20089;-63
2023/01/11 01:55:49;;;;;;;1.30;1.20;;;5.60;99.90;;;;;;4383154;32;20548;-65
2023/01/11 01:58:18;;;;;;;3.03;1.20;;;5.60;99.90;;;;;;4385450;32;20082;-65
2023/01/11 02:00:44;;;;;;;4.37;0.85;;;5.60;99.90;;;;;;4377235;32;20606;-64
2023/01/11 02:03:16;;;;;;;0.52;0.52;;;5.70;99.90;;;;;;4377447;32;20074;-65
2023/01/11 02:05:42;;;;;;;0.40;0.40;;;5.70;99.90;;;;;;4376644;32;20089;-65
2023/01/11 02:08:15;;;;;;;0.43;0.43;;;5.70;99.90;;;;;;4387576;32;20066;-64
2023/01/11 02:10:40;;;;;;;0.40;0.40;;;5.70;99.90;;;;;;4381289;32;20586;-63
2023/01/11 02:13:10;;;;;;;0.32;0.32;;;5.70;99.90;;;;;;4372450;32;20094;-63
2023/01/11 02:15:35;;;;;;;0.60;0.60;;;5.80;99.90;;;;;;4379433;32;20081;-64
2023/01/11 02:18:01;;;;;;;0.50;0.50;;;5.80;99.90;;;;;;4386365;32;20062;-63
2023/01/11 02:20:39;;;;;;;0.35;0.35;;;5.70;99.90;;;;;;4379089;32;20160;-63
2023/01/11 02:23:31;;;;;;;0.30;0.30;;;5.70;99.90;;;;;;4368500;32;20104;-64
2023/01/11 02:26:31;;;;;;;0.52;0.52;;;5.80;99.90;;;;;;4385456;32;20101;-64
2023/01/11 02:29:09;;;;;;;0.70;0.70;;;5.80;99.90;;;;;;4383534;32;20665;-64
2023/01/11 02:31:47;;;;;;;2.33;1.23;;;5.80;99.90;;;;;;4379473;32;20140;-64
2023/01/11 02:34:25;;;;;;;0.80;0.80;;;5.80;99.90;;;;;;4366511;32;20464;-64
2023/01/11 02:37:13;;;;;;;0.40;0.40;;;5.80;99.90;;;;;;4385968;32;20090;-64
2023/01/11 02:40:18;;;;;;;3.03;1.05;;;5.80;99.90;;;;;;4384132;32;20070;-65
2023/01/11 02:45:00;;;;;;;0.30;0.30;;;5.80;99.90;;;;;;4368594;32;20467;-64
2023/01/11 02:46:01;;;;;;;10.63;0.77;;;5.80;99.90;;;;;;4367725;32;20090;-65
2023/01/11 02:48:37;;;;;;;0.40;0.40;;;5.80;99.90;;;;;;4375229;32;20106;-66
2023/01/11 02:51:06;;;;;;;0.30;0.30;;;5.80;99.90;;;;;;4378109;32;20086;-63
2023/01/11 02:53:55;;;;;;;0.40;0.40;;;5.80;99.90;;;;;;4369738;32;20063;-66
2023/01/11 02:56:26;;;;;;;0.30;0.30;;;5.80;99.90;;;;;;4385659;32;20518;-66
2023/01/11 02:58:54;;;;;;;0.40;0.40;;;5.80;99.90;;;;;;4383425;32;20160;-63
2023/01/11 03:01:21;;;;;;;0.30;0.30;;;5.90;99.90;;;;;;4374572;32;20091;-65
2023/01/11 03:03:47;;;;;;;0.35;0.35;;;5.90;99.90;;;;;;4371767;32;20081;-65
2023/01/11 03:06:19;;;;;;;1.12;1.05;;;5.80;99.90;;;;;;4378935;32;20066;-65
2023/01/11 03:09:08;;;;;;;0.43;0.43;;;5.90;99.90;;;;;;4386931;32;20134;-64
2023/01/11 03:13:00;;;;;;;0.50;0.50;;;5.80;99.90;;;;;;4376148;32;20101;-65
2023/01/11 03:15:10;;;;;;;0.40;0.40;;;5.80;99.90;;;;;;4371554;32;20098;-65
2023/01/11 03:17:48;;;;;;;0.35;0.35;;;5.90;99.90;;;;;;4376668;32;20066;-66
2023/01/11 03:20:25;;;;;;;0.30;0.30;;;5.80;99.90;;;;;;4380586;32;20086;-65
2023/01/11 03:23:04;;;;;;;0.35;0.35;;;5.80;99.90;;;;;;4364384;32;20094;-65
2023/01/11 03:25:50;;;;;;;0.40;0.40;;;5.80;99.90;;;;;;4380710;32;20082;-67
2023/01/11 03:28:30;;;;;;;0.35;0.35;;;5.90;99.90;;;;;;4390050;32;20098;-63
2023/01/11 03:30:58;;;;;;;0.40;0.40;;;5.90;99.90;;;;;;4373897;32;20094;-66
2023/01/11 03:33:51;;;;;;;0.37;0.37;;;5.90;99.90;;;;;;4371501;32;20103;-65
2023/01/11 03:36:24;;;;;;;0.40;0.40;;;5.80;99.90;;;;;;4378268;32;20069;-64
2023/01/11 03:38:59;;;;;;;0.30;0.30;;;5.80;99.90;;;;;;4387042;32;20082;-65
2023/01/11 03:41:28;;;;;;;0.40;0.40;;;5.90;99.90;;;;;;4375896;32;20617;-65
2023/01/11 03:43:56;;;;;;;0.40;0.40;;;5.80;99.90;;;;;;4372537;32;20094;-65
2023/01/11 03:46:27;;;;;;;0.30;0.30;;;5.90;99.90;;;;;;4383453;32;20089;-65
2023/01/11 03:49:06;;;;;;;0.40;0.40;;;5.90;99.90;;;;;;4387592;32;20082;-65
2023/01/11 03:51:41;;;;;;;0.40;0.40;;;5.90;99.90;;;;;;4369864;32;20523;-64
2023/01/11 03:54:08;;;;;;;0.32;0.32;;;5.90;99.90;;;;;;4372585;32;20129;-65
2023/01/11 03:56:39;;;;;;;0.45;0.45;;;5.90;99.90;;;;;;4385321;32;20534;-65
2023/01/11 03:59:05;;;;;;;1.10;0.73;;;5.80;99.90;;;;;;4382598;32;20074;-64
2023/01/11 04:01:31;;;;;;;0.40;0.40;;;5.80;99.90;;;;;;4377713;32;20082;-64
2023/01/11 04:03:56;;;;;;;0.35;0.35;;;5.80;99.90;;;;;;4372003;32;20087;-65
2023/01/11 04:06:23;;;;;;;0.30;0.30;;;5.90;99.90;;;;;;4380508;32;20074;-65
2023/01/11 04:08:48;;;;;;;0.40;0.40;;;6.00;99.90;;;;;;4387912;32;20070;-65
2023/01/11 04:11:14;;;;;;;1.02;0.93;;;6.00;99.90;;;;;;4377403;32;20071;-65
2023/01/11 04:13:39;;;;;;;0.30;0.30;;;5.90;99.90;;;;;;4373513;32;20111;-63
2023/01/11 04:16:05;;;;;;;0.88;0.88;;;5.90;99.90;;;;;;4381827;32;20066;-65
2023/01/11 04:18:31;;;;;;;0.30;0.30;;;5.90;99.90;;;;;;4384811;32;20075;-65
2023/01/11 04:20:56;;;;;;;3.58;0.60;;;5.90;99.90;;;;;;4374783;32;20141;-65
2023/01/11 04:23:21;;;;;;;0.55;0.55;;;5.90;99.90;;;;;;4368494;32;20510;-64
2023/01/11 04:25:47;;;;;;;0.55;0.55;;;6.00;99.90;;;;;;4383318;32;20087;-65
2023/01/11 04:28:12;;;;;;;0.82;0.82;;;5.90;99.90;;;;;;4386604;32;20653;-65
2023/01/11 04:30:38;;;;;;;0.40;0.40;;;6.00;99.90;;;;;;4372249;32;20290;-65
2023/01/11 04:33:04;;;;;;;0.40;0.40;;;6.00;99.90;;;;;;4374917;32;20097;-65
2023/01/11 04:35:30;;;;;;;0.30;0.30;;;6.00;99.90;;;;;;4373859;32;20173;-66
2023/01/11 04:37:56;;;;;;;0.50;0.50;;;6.00;99.90;;;;;;4386885;32;20075;-65
2023/01/11 04:40:24;;;;;;;0.40;0.40;;;6.00;99.90;;;;;;4381499;32;20562;-65
2023/01/11 04:42:49;;;;;;;0.37;0.37;;;6.10;99.90;;;;;;4372108;32;20381;-64
2023/01/11 04:45:15;;;;;;;0.40;0.40;;;6.10;99.90;;;;;;4375454;32;20082;-66
2023/01/11 04:47:40;;;;;;;0.30;0.30;;;6.10;99.90;;;;;;4384439;32;20066;-64
2023/01/11 04:50:07;;;;;;;0.55;0.55;;;6.10;99.90;;;;;;4382487;32;20102;-65
2023/01/11 04:52:32;;;;;;;0.28;0.28;;;6.10;99.90;;;;;;4364390;32;20160;-64
2023/01/11 04:54:58;;;;;;;2.92;0.70;;;6.10;99.90;;;;;;4376960;32;20133;-65
2023/01/11 04:57:24;;;;;;;0.30;0.30;;;6.10;99.90;;;;;;4385465;32;20126;-65
2023/01/11 04:59:49;;;;;;;1.35;0.75;;;6.10;99.90;;;;;;4380213;32;20567;-65
2023/01/11 05:02:15;;;;;;;0.30;0.30;;;6.10;99.90;;;;;;4376626;32;20066;-65
2023/01/11 05:04:41;;;;;;;1.98;0.82;;;6.10;99.90;;;;;;4365261;32;20078;-65
2023/01/11 05:07:07;;;;;;;0.40;0.40;;;6.10;99.90;;;;;;4385099;32;20151;-66
2023/01/11 05:09:33;;;;;;;0.40;0.40;;;6.00;99.90;;;;;;4381739;32;20098;-65
2023/01/11 05:11:59;;;;;;;0.30;0.30;;;6.00;99.90;;;;;;4371659;32;20115;-65
2023/01/11 05:14:24;;;;;;;0.30;0.30;;;6.00;99.90;;;;;;4371763;32;20716;-65
2023/01/11 05:16:50;;;;;;;1.30;1.20;;;6.10;99.90;;;;;;4384722;32;20075;-65
2023/01/11 05:19:15;;;;;;;0.30;0.30;;;6.10;99.90;;;;;;4383308;32;20063;-65
2023/01/11 05:21:41;;;;;;;0.40;0.40;;;6.00;99.90;;;;;;4363166;32;20089;-64
2023/01/11 05:24:09;;;;;;;0.70;0.70;;;6.10;99.90;;;;;;4340711;32;20108;-64
2023/01/11 05:26:38;;;;;;;0.37;0.37;;;6.00;99.90;;;;;;4358085;32;20340;-64
2023/01/11 05:29:06;;;;;;;1.35;0.70;;;6.10;99.90;;;;;;4348608;32;20735;-64
2023/01/11 05:31:33;;;;;;;0.32;0.32;;;6.10;99.90;;;;;;4351656;32;20098;-62
2023/01/11 05:33:58;;;;;;;0.30;0.30;;;6.20;99.90;;;;;;4337396;32;20569;-63
2023/01/11 05:36:25;;;;;;;0.57;0.57;;;6.10;99.90;;;;;;4354253;32;20707;-65
2023/01/11 05:38:52;;;;;;;7.37;0.65;;;6.20;99.90;;;;;;4384873;32;20142;-65
2023/01/11 05:41:19;;;;;;;1.85;1.02;;;6.30;99.90;;;;;;4376527;32;20061;-65
2023/01/11 05:45:46;;;;;;;0.40;0.40;;;6.20;99.90;;;;;;4367592;32;20062;-65
2023/01/11 05:46:34;;;;;;;0.30;0.30;;;6.20;99.90;;;;;;4383318;32;20105;-65
2023/01/11 05:49:00;;;;;;;0.40;0.40;;;6.20;99.90;;;;;;4385526;32;20071;-65
2023/01/11 05:51:29;;;;;;;0.47;0.40;;;6.30;99.90;;;;;;4368331;32;20091;-63
2023/01/11 05:53:55;;;;;;;0.30;0.30;;;6.30;99.90;;;;;;4342695;32;20090;-64
2023/01/11 05:56:20;;;;;;;0.30;0.30;;;6.20;99.90;;;;;;4355775;32;20078;-65
2023/01/11 05:58:48;;;;;;;7.32;1.40;;;6.20;99.90;;;;;;4381775;32;20079;-65
2023/01/11 06:01:15;;;;;;;0.60;0.60;;;6.20;99.90;;;;;;4371650;32;20097;-64
2023/01/11 06:03:40;;;;;;;0.43;0.43;;;6.20;99.90;;;;;;4351142;32;20646;-64
2023/01/11 06:06:07;;;;;;;0.30;0.30;;;6.30;99.90;;;;;;4356570;32;20295;-65
2023/01/11 06:08:32;;;;;;;0.32;0.32;;;6.30;99.90;;;;;;4350441;32;20079;-64
2023/01/11 06:10:58;;;;;;;3.80;1.58;;;6.40;99.90;;;;;;4343448;32;20069;-64
2023/01/11 06:13:25;;;;;;;0.30;0.30;;;6.30;99.90;;;;;;4331466;32;20586;-64
2023/01/11 06:15:52;;;;;;;0.40;0.40;;;6.40;99.90;;;;;;4340919;32;20182;-64
2023/01/11 06:18:17;;;;;;;0.40;0.40;;;6.40;99.90;;;;;;4324819;32;20313;-64
2023/01/11 06:20:43;;;;;;;0.60;0.60;;;6.40;99.90;;;;;;4300068;32;20290;-64
2023/01/11 06:23:08;;;;;;;0.47;0.47;;;6.50;99.90;;;;;;4293178;32;20519;-65
2023/01/11 06:25:36;;;;;;;0.77;0.68;;;6.50;99.90;;;;;;4287830;32;20202;-64
2023/01/11 06:28:03;;;;;;;1.27;0.80;;;6.50;99.90;;;;;;4319265;32;20102;-64
2023/01/11 06:30:29;;;;;;;1.75;0.50;;;6.50;99.90;;;;;;4278232;32;20137;-63
2023/01/11 06:32:54;;;;;;;0.43;0.43;;;6.60;99.90;;;;;;4299004;32;20105;-65
2023/01/11 06:35:21;;;;;;;0.30;0.30;;;6.50;99.90;;;;;;4309499;32;20349;-64
2023/01/11 06:37:48;;;;;;;0.32;0.32;;;6.50;99.90;;;;;;4322607;32;20217;-65
2023/01/11 06:40:13;;;;;;;1.00;0.98;;;6.60;99.90;;;;;;4320607;32;20221;-65
2023/01/11 06:42:40;;;;;;;0.30;0.30;;;6.50;99.90;;;;;;4322330;32;20276;-64
2023/01/11 06:45:06;;;;;;;3.30;1.02;;;6.50;99.90;;;;;;4338912;32;20318;-64
2023/01/11 06:47:31;;;;;;;0.32;0.32;;;6.60;99.90;;;;;;4344392;32;20121;-65
2023/01/11 06:49:58;;;;;;;0.40;0.40;;;6.60;99.90;;;;;;4347975;32;20613;-64
2023/01/11 06:52:23;;;;;;;1.80;0.62;;;6.60;99.90;;;;;;4345275;32;20330;-65
2023/01/11 06:54:49;;;;;;;0.88;0.88;;;6.60;99.90;;;;;;4350994;32;20154;-64
2023/01/11 06:57:14;;;;;;;0.30;0.30;;;6.60;99.90;;;;;;4352778;32;20083;-65
2023/01/11 06:59:42;;;;;;;11.85;1.12;;;6.50;99.90;;;;;;4339238;32;20121;-65
2023/01/11 07:02:09;;;;;;;0.50;0.50;;;6.60;99.90;;;;;;4327150;32;21400;-63
2023/01/11 07:04:34;;;;;;;3.67;0.45;;;6.60;99.90;;;;;;4330572;32;20098;-64
2023/01/11 07:07:00;;;;;;;0.28;0.28;;;6.60;99.90;;;;;;4347299;32;20194;-63
2023/01/11 07:09:25;;;;;;;1.85;1.00;;;6.50;99.90;;;;;;4371154;26;22491;-74
2023/01/11 07:11:51;;;;;;;0.50;0.50;;;6.40;99.90;;;;;;4351224;32;20155;-74
2023/01/11 07:14:18;;;;;;;0.30;0.30;;;6.50;99.90;;;;;;4350948;32;20510;-74
2023/01/11 07:16:45;;;;;;;0.30;0.30;;;6.40;99.90;;;;;;4355417;32;20121;-74
2023/01/11 07:19:10;;;;;;;0.30;0.30;;;6.40;99.90;;;;;;4346443;32;20361;-75
2023/01/11 07:21:36;;;;;;;0.55;0.55;;;6.40;99.90;;;;;;4349066;32;21516;-74
2023/01/11 07:24:02;;;;;;;0.65;0.55;;;6.40;99.90;;;;;;4352343;32;20415;-75
2023/01/11 07:26:28;;;;;;;0.70;0.70;;;6.40;99.90;;;;;;4366716;32;20081;-75
2023/01/11 07:28:54;;;;;;;1.20;0.43;;;6.40;99.90;;;;;;4358604;32;20304;-75
2023/01/11 07:31:19;;;;;;;0.40;0.40;;;6.40;99.90;;;;;;4356115;32;88453;-75
2023/01/11 07:33:45;;;;;;;0.30;0.30;;;6.40;99.90;;;;;;4343283;32;20093;-76
2023/01/11 07:36:10;;;;;;;0.40;0.40;;;6.40;99.90;;;;;;4356956;32;20082;-74
2023/01/11 07:38:36;;;;;;;0.45;0.45;;;6.50;99.90;;;;;;4362702;32;20080;-75
2023/01/11 07:43:10;;;;;;;0.40;0.40;;;6.40;99.90;;;;;;4374685;32;20094;-75
2023/01/11 07:43:47;;;;;;;0.30;0.30;;;6.40;99.90;;;;;;4372341;32;20699;-76
2023/01/11 07:46:12;;;;;;;0.40;0.40;;;6.50;99.90;;;;;;4365669;32;20130;-75
2023/01/11 07:48:38;;;;;;;0.62;0.62;;;6.50;99.90;;;;;;4367995;32;20663;-75
2023/01/11 07:51:03;;;;;;;0.40;0.40;;;6.50;99.90;;;;;;4346144;32;21263;-75
2023/01/11 07:53:29;;;;;;;0.73;0.73;;;6.50;99.90;;;;;;4351249;32;20265;-75
2023/01/11 07:55:55;;;;;;;0.30;0.30;;;6.60;99.90;;;;;;4355056;32;20518;-75
2023/01/11 07:58:20;;;;;;;0.50;0.50;;;6.60;99.90;;;;;;4347914;32;20138;-75
2023/01/11 08:00:46;;;;;;;0.60;0.60;;;6.60;99.90;;;;;;4335886;32;20167;-75
2023/01/11 08:03:12;;;;;;;0.62;0.62;;;6.60;99.90;;;;;;4319416;32;20307;-75
2023/01/11 08:05:37;;;;;;;0.57;0.50;;;6.60;99.90;;;;;;4332953;32;20592;-74
2023/01/11 08:08:04;;;;;;;0.30;0.30;;;6.60;99.90;;;;;;4340967;32;20086;-74
2023/01/11 08:10:29;;;;;;;0.30;0.30;;;6.60;99.90;;;;;;4339903;32;20094;-74
2023/01/11 08:14:55;;;;;;;32.90;3.60;;;6.60;99.90;;;;;;4345892;32;21848;-75
2023/01/11 08:15:41;;;;;;;0.47;0.47;;;6.60;99.90;;;;;;4358169;32;20254;-73
2023/01/11 08:18:08;;;;;;;0.62;0.62;;;6.60;99.90;;;;;;4359022;32;20387;-74
2023/01/11 08:20:33;;;;;;;0.35;0.35;;;6.60;99.90;;;;;;4344751;32;20538;-75
2023/01/11 08:23:04;;;;;;;0.37;0.37;;;6.60;99.90;;;;;;4334037;32;21827;-75
2023/01/11 08:25:30;;;;;;;;;;;6.70;99.90;;;;;;4337138;32;20981;-75
2023/01/11 08:27:59;;;;;;;0.30;0.30;;;6.80;99.90;;;;;;4331475;32;20449;-76
2023/01/11 08:30:24;;;;;;;0.40;0.40;;;6.80;99.90;;;;;;4316561;32;20504;-76
2023/01/11 08:32:50;;;;;;;0.40;0.40;;;6.90;99.90;;;;;;4300651;32;20618;-76
2023/01/11 08:35:15;;;;;;;0.43;0.43;;;6.90;99.90;;;;;;4321896;32;20123;-75
2023/01/11 08:37:41;;;;;;;0.30;0.30;;;7.00;99.90;;;;;;4346628;32;21982;-74
2023/01/11 08:40:07;;;;;;;0.30;0.30;;;7.00;99.90;;;;;;4350885;32;20381;-75
2023/01/11 08:42:32;;;;;;;0.30;0.30;;;7.10;99.90;;;;;;4349741;32;20232;-75
2023/01/11 08:44:58;;;;;;;22.65;0.52;;;7.10;99.90;;;;;;4354505;32;20353;-75
2023/01/11 08:47:24;;;;;;;0.30;0.30;;;7.10;99.90;;;;;;4351002;32;20101;-75
2023/01/11 08:49:49;;;;;;;0.50;0.50;;;7.10;99.90;;;;;;4324510;32;20109;-75
2023/01/11 08:52:15;;;;;;;0.40;0.40;;;7.20;99.90;;;;;;4325485;32;20476;-74
2023/01/11 08:54:40;;;;;;;0.50;0.50;;;7.20;99.90;;;;;;4335808;32;20251;-75
2023/01/11 08:57:06;;;;;;;0.43;0.43;;;7.20;99.90;;;;;;4341139;32;20802;-74
2023/01/11 08:59:31;;;;;;;0.30;0.30;;;7.30;99.90;;;;;;4345012;32;20101;-76
2023/01/11 09:01:57;;;;;;;0.40;0.40;;;7.20;99.90;;;;;;4334110;32;20532;-76
2023/01/11 09:04:23;;;;;;;0.40;0.40;;;7.20;99.90;;;;;;4325044;32;20759;-74
2023/01/11 09:06:49;;;;;;;0.50;0.50;;;7.30;99.90;;;;;;4344561;32;20098;-74
2023/01/11 09:09:15;;;;;;;0.45;0.45;;;7.30;99.90;;;;;;4348694;32;20097;-76
2023/01/11 09:11:59;;;;;;;1.67;1.10;;;7.30;99.90;;;;;;4346674;32;20640;-75
2023/01/11 09:14:26;;;;;;;0.40;0.40;;;7.30;99.90;;;;;;4340452;32;20496;-75
2023/01/11 09:16:53;;;;;;;0.30;0.30;;;7.30;99.90;;;;;;4356383;32;21482;-75
2023/01/11 09:19:19;;;;;;;0.40;0.40;;;7.30;99.90;;;;;;4341992;32;20189;-75
2023/01/11 09:21:45;;;;;;;0.52;0.52;;;7.30;99.90;;;;;;4340920;32;20569;-75
2023/01/11 09:24:11;;;;;;;0.40;0.40;;;7.30;99.90;;;;;;4334073;32;20337;-75
2023/01/11 09:26:37;;;;;;;0.52;0.52;;;7.30;99.90;;;;;;4334543;32;20819;-76
2023/01/11 09:29:03;;;;;;;0.50;0.50;;;7.30;99.90;;;;;;4341534;32;20118;-74
2023/01/11 09:31:29;;;;;;;0.30;0.30;;;7.30;99.90;;;;;;4342676;32;20302;-75
2023/01/11 09:33:54;;;;;;;0.57;0.57;;;7.30;99.90;;;;;;4332198;32;21000;-76
2023/01/11 09:36:21;;;;;;;2.40;1.42;;;7.30;99.90;;;;;;4351620;32;20954;-75
2023/01/11 09:38:51;;;;;;;0.45;0.40;;;7.30;99.90;;;;;;4356892;32;20621;-75
2023/01/11 09:41:33;;;;;;;0.30;0.30;;;7.30;99.90;;;;;;4361234;32;21019;-75
2023/01/11 09:44:10;;;;;;;0.50;0.50;;;7.20;99.90;;;;;;4355163;32;20452;-76
2023/01/11 09:46:41;;;;;;;0.45;0.45;;;7.10;99.90;;;;;;4354748;32;20090;-76
2023/01/11 09:49:12;;;;;;;;;;;7.10;99.90;;;;;;4352909;32;20889;-75
2023/01/11 09:51:38;;;;;;;0.70;0.68;;;7.10;99.90;;;;;;4345979;32;20269;-75
2023/01/11 09:54:09;;;;;;;0.50;0.50;;;7.10;99.90;;;;;;4339748;32;21497;-75
2023/01/11 09:56:45;;;;;;;0.50;0.50;;;7.00;99.90;;;;;;4349085;32;20339;-75
2023/01/11 09:59:25;;;;;;;0.55;0.50;;;7.00;99.90;;;;;;4343979;32;20149;-75
2023/01/11 10:01:56;;;;;;;4.30;0.77;;;7.00;99.90;;;;;;4332760;32;20082;-75
2023/01/11 10:04:34;;;;;;;;;;;7.00;99.90;;;;;;4321029;32;20259;-75
2023/01/11 10:07:17;;;;;;;0.30;0.30;;;7.00;99.90;;;;;;4347564;32;20330;-75
2023/01/11 10:09:58;;;;;;;0.30;0.30;;;6.90;99.90;;;;;;4341888;32;20149;-76
2023/01/11 10:12:34;;;;;;;0.52;0.52;;;6.90;99.90;;;;;;4340054;32;20101;-76
2023/01/11 10:15:12;;;;;;;0.62;0.62;;;6.90;99.90;;;;;;4330898;32;20291;-76
2023/01/11 10:18:12;;;;;;;0.60;0.60;;;7.00;99.90;;;;;;4332334;32;21156;-76
2023/01/11 10:20:42;;;;;;;0.43;0.43;;;7.00;99.90;;;;;;4321714;32;20696;-75
2023/01/11 10:23:15;;;;;;;0.35;0.35;;;7.00;99.90;;;;;;4318700;32;20121;-74
2023/01/11 10:25:50;;;;;;;0.40;0.40;;;7.00;99.90;;;;;;4326266;32;20335;-75
2023/01/11 10:28:23;;;;;;;0.40;0.40;;;7.10;99.90;;;;;;4320728;32;20519;-76
2023/01/11 10:34:15;;;;;;;0.40;0.40;;;7.10;99.90;;;;;;4305956;32;21802;-76
2023/01/11 10:37:46;;;;;;;0.30;0.30;;;7.10;99.90;;;;;;4343757;32;20102;-77
2023/01/11 10:40:06;;;;;;;0.50;0.50;;;7.20;99.90;;;;;;4332488;32;20118;-75
2023/01/11 10:42:42;;;;;;;0.40;0.40;;;7.30;99.90;;;;;;4342819;32;20165;-75
2023/01/11 10:45:16;;;;;;;0.40;0.40;;;7.30;99.90;;;;;;4344664;32;20102;-75
2023/01/11 10:48:06;;;;;;;0.65;0.65;;;7.20;99.90;;;;;;4337689;32;20220;-75
2023/01/11 10:50:40;;;;;;;0.30;0.30;;;7.30;99.90;;;;;;4315072;32;21054;-75
2023/01/11 10:53:15;;;;;;;0.30;0.30;;;7.30;99.90;;;;;;4323652;32;20247;-76
2023/01/11 10:55:52;;;;;;;0.40;0.40;;;7.30;99.90;;;;;;4331450;32;20118;-74
2023/01/11 10:58:33;;;;;;;0.30;0.30;;;7.30;99.90;;;;;;4323485;32;20089;-74
2023/01/11 11:01:17;;;;;;;3.10;0.95;;;7.30;99.90;;;;;;4322516;32;20482;-75
2023/01/11 11:04:20;;;;;;;0.30;0.30;;;7.30;99.90;;;;;;4321629;32;20844;-74
2023/01/11 11:07:10;;;;;;;0.75;0.62;;;7.40;99.90;;;;;;4359217;32;20094;-73
2023/01/11 11:09:53;;;;;;;0.40;0.40;;;7.40;99.90;;;;;;4362398;32;20062;-75
2023/01/11 11:12:31;;;;;;;3.87;1.60;;;7.40;99.90;;;;;;4361669;32;20150;-74
2023/01/11 11:15:04;;;;;;;0.50;0.50;;;7.40;99.90;;;;;;4362080;32;20101;-74
2023/01/11 11:17:34;;;;;;;0.93;0.70;;;7.30;99.90;;;;;;4349312;32;20837;-76
2023/01/11 11:20:02;;;;;;;0.40;0.40;;;7.30;99.90;;;;;;4332528;32;20355;-74
2023/01/11 11:22:27;;;;;;;0.30;0.30;;;7.30;99.90;;;;;;4336508;32;20174;-75
2023/01/11 11:25:02;;;;;;;0.30;0.30;;;7.40;99.90;;;;;;4349089;32;20082;-74
2023/01/11 11:27:40;;;;;;;0.30;0.30;;;7.40;99.90;;;;;;4348986;32;20192;-75
2023/01/11 11:30:10;;;;;;;0.30;0.30;;;7.40;99.90;;;;;;4344056;32;20292;-75
2023/01/11 11:32:37;;;;;;;0.37;0.37;;;7.30;99.90;;;;;;4347030;32;20109;-75
2023/01/11 11:35:03;;;;;;;0.50;0.50;;;7.30;99.90;;;;;;4344458;32;20723;-75
2023/01/11 11:37:43;;;;;;;0.40;0.40;;;7.40;99.90;;;;;;4369233;32;20133;-73
2023/01/11 11:40:31;;;;;;;0.40;0.40;;;7.40;99.90;;;;;;4362672;32;20113;-75
2023/01/11 11:43:09;;;;;;;0.30;0.30;;;7.40;99.90;;;;;;4359593;32;20090;-74
2023/01/11 11:45:35;;;;;;;0.30;0.30;;;7.40;99.90;;;;;;4360297;32;20904;-74
2023/01/11 11:48:04;;;;;;;0.40;0.40;;;7.50;99.90;;;;;;4358748;32;20090;-75
2023/01/11 11:50:29;;;;;;;0.30;0.30;;;7.50;99.90;;;;;;4350434;32;20503;-74
2023/01/11 11:53:02;;;;;;;0.30;0.30;;;7.50;99.90;;;;;;4339744;32;20268;-75
2023/01/11 11:55:31;;;;;;;0.50;0.50;;;7.50;99.90;;;;;;4337718;32;21374;-74
2023/01/11 11:58:03;;;;;;;0.30;0.30;;;7.50;99.90;;;;;;4330659;32;20109;-76
2023/01/11 12:00:33;;;;;;;0.50;0.50;;;7.50;99.90;;;;;;4330851;32;20431;-75
2023/01/11 12:03:04;;;;;;;0.40;0.40;;;7.50;99.90;;;;;;4331368;32;21032;-75
2023/01/11 12:05:30;;;;;;;;;;;7.50;99.90;;;;;;4329042;32;20137;-75
2023/01/11 12:07:55;;;;;;;0.32;0.32;;;7.50;99.90;;;;;;4339195;32;19980;-75
2023/01/11 12:10:24;;;;;;;0.25;0.25;;;7.50;99.90;;;;;;4351738;32;20110;-75
2023/01/11 12:12:55;;;;;;;0.40;0.40;;;7.60;99.90;;;;;;4355929;32;20205;-75
2023/01/11 12:15:36;;;;;;;0.30;0.30;;;7.70;99.90;;;;;;4342117;32;20179;-76
2023/01/11 12:18:26;;;;;;;4.18;2.00;;;7.70;99.90;;;;;;4347715;32;20281;-76
2023/01/11 12:20:52;;;;;;;0.40;0.40;;;7.70;99.90;;;;;;4343024;32;20468;-76
2023/01/11 12:23:22;;;;;;;0.25;0.25;;;7.70;99.90;;;;;;4334109;32;20248;-75
2023/01/11 12:26:14;;;;;;;0.30;0.30;;;7.80;99.90;;;;;;4357019;32;20682;-75
2023/01/11 12:29:09;;;;;;;0.35;0.35;;;7.80;99.90;;;;;;4352945;32;20719;-75
2023/01/11 12:32:14;;;;;;;0.30;0.30;;;7.90;99.90;;;;;;4346645;32;20122;-75
2023/01/11 12:35:07;;;;;;;0.40;0.40;;;7.80;99.90;;;;;;4337225;32;20358;-75
2023/01/11 12:37:52;;;;;;;0.60;0.60;;;7.90;99.90;;;;;;4359139;32;20465;-74
2023/01/11 12:40:32;;;;;;;0.40;0.40;;;7.90;99.90;;;;;;4351631;32;20089;-74
2023/01/11 12:43:25;;;;;;;0.50;0.50;;;7.90;99.90;;;;;;4332227;32;21368;-75
2023/01/11 12:46:12;;;;;;;0.35;0.35;;;7.90;99.90;;;;;;4340909;32;20153;-75
2023/01/11 12:48:48;;;;;;;0.37;0.37;;;7.90;99.90;;;;;;4342753;32;20182;-75
2023/01/11 12:51:36;;;;;;;0.37;0.37;;;8.00;99.90;;;;;;4334882;32;20098;-75
2023/01/11 12:54:24;;;;;;;0.30;0.30;;;8.00;99.90;;;;;;4338366;32;20268;-76
2023/01/11 12:57:04;;;;;;;0.30;0.30;;;8.00;99.90;;;;;;4371752;32;20623;-75
2023/01/11 12:59:41;;;;;;;0.60;0.60;;;8.00;99.90;;;;;;4367643;32;20355;-74
2023/01/11 13:02:21;;;;;;;0.30;0.30;;;8.00;99.90;;;;;;4364497;32;20097;-76
2023/01/11 13:05:26;;;;;;;0.30;0.30;;;7.90;99.90;;;;;;4353011;32;20296;-75
2023/01/11 13:08:20;;;;;;;0.30;0.30;;;8.00;99.90;;;;;;4349927;32;20612;-74
2023/01/11 13:11:33;;;;;;;0.75;0.75;;;8.00;99.90;;;;;;4340911;32;20114;-75
2023/01/11 13:14:15;;;;;;;0.40;0.40;;;8.00;99.90;;;;;;4356208;32;20645;-75
2023/01/11 13:17:12;;;;;;;0.45;0.45;;;8.00;99.90;;;;;;4358000;32;20498;-74
2023/01/11 13:19:45;;;;;;;0.30;0.30;;;8.00;99.90;;;;;;4330348;32;20873;-75
2023/01/11 13:22:18;;;;;;;0.30;0.30;;;8.10;99.90;;;;;;4354373;32;20191;-75
2023/01/11 13:24:46;;;;;;;0.30;0.30;;;8.10;99.90;;;;;;4348880;32;20097;-74
2023/01/11 13:27:17;;;;;;;0.40;0.40;;;8.10;99.90;;;;;;4354186;32;20102;-74
2023/01/11 13:29:46;;;;;;;0.33;0.33;;;8.00;99.90;;;;;;4363052;32;20085;-76